sensor_id;sensor_type;location;lat;lon;timestamp;temperature;humidity
21271;DHT22;10795;50.796;3.860;2024-01-30T00:00:36;10.30;99.90
21271;DHT22;10795;50.796;3.860;2024-01-30T00:03:02;10.10;99.90
21271;DHT22;10795;50.796;3.860;2024-01-30T00:05:34;10.20;99.90
21271;DHT22;10795;50.796;3.860;2024-01-30T00:07:59;10.30;99.90
21271;DHT22;10795;50.796;3.860;2024-01-30T00:10:28;10.30;99.90
21271;DHT22;10795;50.796;3.860;2024-01-30T00:12:53;10.30;99.90
21271;DHT22;10795;50.796;3.860;2024-01-30T00:15:22;10.10;99.90
21271;DHT22;10795;50.796;3.860;2024-01-30T00:17:48;10.30;99.90
21271;DHT22;10795;50.796;3.860;2024-01-30T00:20:17;10.40;99.90
21271;DHT22;10795;50.796;3.860;2024-01-30T00:22:45;10.20;99.90
21271;DHT22;10795;50.796;3.860;2024-01-30T00:25:11;10.00;99.90
21271;DHT22;10795;50.796;3.860;2024-01-30T00:27:37;9.90;99.90
21271;DHT22;10795;50.796;3.860;2024-01-30T00:30:05;9.90;99.90
21271;DHT22;10795;50.796;3.860;2024-01-30T00:32:33;10.00;99.90
21271;DHT22;10795;50.796;3.860;2024-01-30T00:35:03;10.00;99.90
21271;DHT22;10795;50.796;3.860;2024-01-30T00:37:32;10.00;99.90
21271;DHT22;10795;50.796;3.860;2024-01-30T00:39:57;10.00;99.90
21271;DHT22;10795;50.796;3.860;2024-01-30T00:42:25;10.10;99.90
21271;DHT22;10795;50.796;3.860;2024-01-30T00:44:54;10.10;99.90
21271;DHT22;10795;50.796;3.860;2024-01-30T00:47:20;10.10;99.90
21271;DHT22;10795;50.796;3.860;2024-01-30T00:49:45;10.10;99.90
21271;DHT22;10795;50.796;3.860;2024-01-30T00:52:11;10.10;99.90
21271;DHT22;10795;50.796;3.860;2024-01-30T00:54:39;10.10;99.90
21271;DHT22;10795;50.796;3.860;2024-01-30T00:57:05;10.10;99.90
21271;DHT22;10795;50.796;3.860;2024-01-30T00:59:31;10.10;99.90
21271;DHT22;10795;50.796;3.860;2024-01-30T01:01:59;10.00;99.90
21271;DHT22;10795;50.796;3.860;2024-01-30T01:04:25;10.10;99.90
21271;DHT22;10795;50.796;3.860;2024-01-30T01:06:55;10.00;99.90
21271;DHT22;10795;50.796;3.860;2024-01-30T01:09:23;10.00;99.90
21271;DHT22;10795;50.796;3.860;2024-01-30T01:11:49;10.00;99.90
21271;DHT22;10795;50.796;3.860;2024-01-30T01:14:15;10.10;99.90
21271;DHT22;10795;50.796;3.860;2024-01-30T01:16:46;10.30;99.90
21271;DHT22;10795;50.796;3.860;2024-01-30T01:19:14;10.10;99.90
21271;DHT22;10795;50.796;3.860;2024-01-30T01:21:47;10.10;99.90
21271;DHT22;10795;50.796;3.860;2024-01-30T01:24:15;10.10;99.90
21271;DHT22;10795;50.796;3.860;2024-01-30T01:26:43;10.20;99.90
21271;DHT22;10795;50.796;3.860;2024-01-30T01:29:12;10.20;99.90
21271;DHT22;10795;50.796;3.860;2024-01-30T01:31:42;10.30;99.90
21271;DHT22;10795;50.796;3.860;2024-01-30T01:34:12;10.30;99.90
21271;DHT22;10795;50.796;3.860;2024-01-30T01:36:39;10.40;99.90
21271;DHT22;10795;50.796;3.860;2024-01-30T01:39:05;10.50;99.90
21271;DHT22;10795;50.796;3.860;2024-01-30T01:41:32;10.60;99.90
21271;DHT22;10795;50.796;3.860;2024-01-30T01:44:00;10.40;99.90
21271;DHT22;10795;50.796;3.860;2024-01-30T01:46:33;10.50;99.90
21271;DHT22;10795;50.796;3.860;2024-01-30T01:49:04;10.50;99.90
21271;DHT22;10795;50.796;3.860;2024-01-30T01:51:34;10.40;99.90
21271;DHT22;10795;50.796;3.860;2024-01-30T01:54:04;10.50;99.90
21271;DHT22;10795;50.796;3.860;2024-01-30T01:56:31;10.70;99.90
21271;DHT22;10795;50.796;3.860;2024-01-30T01:59:05;10.80;99.90
21271;DHT22;10795;50.796;3.860;2024-01-30T02:01:32;10.80;99.90
21271;DHT22;10795;50.796;3.860;2024-01-30T02:04:01;10.80;99.90
21271;DHT22;10795;50.796;3.860;2024-01-30T02:06:32;10.80;99.90
21271;DHT22;10795;50.796;3.860;2024-01-30T02:08:57;10.60;99.90
21271;DHT22;10795;50.796;3.860;2024-01-30T02:11:26;10.30;99.90
21271;DHT22;10795;50.796;3.860;2024-01-30T02:13:57;10.20;99.90
21271;DHT22;10795;50.796;3.860;2024-01-30T02:16:27;10.20;99.90
21271;DHT22;10795;50.796;3.860;2024-01-30T02:18:55;10.20;99.90
21271;DHT22;10795;50.796;3.860;2024-01-30T02:21:23;10.20;99.90
21271;DHT22;10795;50.796;3.860;2024-01-30T02:23:52;10.10;99.90
21271;DHT22;10795;50.796;3.860;2024-01-30T02:26:22;10.10;99.90
21271;DHT22;10795;50.796;3.860;2024-01-30T02:28:48;10.20;99.90
21271;DHT22;10795;50.796;3.860;2024-01-30T02:31:16;10.30;99.90
21271;DHT22;10795;50.796;3.860;2024-01-30T02:33:44;10.40;99.90
21271;DHT22;10795;50.796;3.860;2024-01-30T02:36:09;10.40;99.90
21271;DHT22;10795;50.796;3.860;2024-01-30T02:38:38;10.40;99.90
21271;DHT22;10795;50.796;3.860;2024-01-30T02:41:06;10.30;99.90
21271;DHT22;10795;50.796;3.860;2024-01-30T02:43:32;10.20;99.90
21271;DHT22;10795;50.796;3.860;2024-01-30T02:45:57;10.20;99.90
21271;DHT22;10795;50.796;3.860;2024-01-30T02:48:26;10.30;99.90
21271;DHT22;10795;50.796;3.860;2024-01-30T02:50:52;10.30;99.90
21271;DHT22;10795;50.796;3.860;2024-01-30T02:53:20;10.30;99.90
21271;DHT22;10795;50.796;3.860;2024-01-30T02:55:48;10.20;99.90
21271;DHT22;10795;50.796;3.860;2024-01-30T02:58:14;10.20;99.90
21271;DHT22;10795;50.796;3.860;2024-01-30T03:00:44;10.20;99.90
21271;DHT22;10795;50.796;3.860;2024-01-30T03:03:17;10.30;99.90
21271;DHT22;10795;50.796;3.860;2024-01-30T03:05:45;10.30;99.90
21271;DHT22;10795;50.796;3.860;2024-01-30T03:08:11;10.30;99.90
21271;DHT22;10795;50.796;3.860;2024-01-30T03:10:42;10.20;99.90
21271;DHT22;10795;50.796;3.860;2024-01-30T03:13:07;10.30;99.90
21271;DHT22;10795;50.796;3.860;2024-01-30T03:15:33;10.40;99.90
21271;DHT22;10795;50.796;3.860;2024-01-30T03:17:59;10.40;99.90
21271;DHT22;10795;50.796;3.860;2024-01-30T03:20:27;10.40;99.90
21271;DHT22;10795;50.796;3.860;2024-01-30T03:22:55;10.30;99.90
21271;DHT22;10795;50.796;3.860;2024-01-30T03:25:21;10.40;99.90
21271;DHT22;10795;50.796;3.860;2024-01-30T03:27:49;10.40;99.90
21271;DHT22;10795;50.796;3.860;2024-01-30T03:30:17;10.50;99.90
21271;DHT22;10795;50.796;3.860;2024-01-30T03:32:43;10.40;99.90
21271;DHT22;10795;50.796;3.860;2024-01-30T03:35:11;10.50;99.90
21271;DHT22;10795;50.796;3.860;2024-01-30T03:37:37;10.40;99.90
21271;DHT22;10795;50.796;3.860;2024-01-30T03:40:03;10.40;99.90
21271;DHT22;10795;50.796;3.860;2024-01-30T03:42:31;10.50;99.90
21271;DHT22;10795;50.796;3.860;2024-01-30T03:44:57;10.50;99.90
21271;DHT22;10795;50.796;3.860;2024-01-30T03:47:23;10.50;99.90
21271;DHT22;10795;50.796;3.860;2024-01-30T03:49:49;10.50;99.90
21271;DHT22;10795;50.796;3.860;2024-01-30T03:52:14;10.50;99.90
21271;DHT22;10795;50.796;3.860;2024-01-30T03:54:40;10.50;99.90
21271;DHT22;10795;50.796;3.860;2024-01-30T03:57:08;10.50;99.90
21271;DHT22;10795;50.796;3.860;2024-01-30T03:59:34;10.50;99.90
21271;DHT22;10795;50.796;3.860;2024-01-30T04:02:00;10.50;99.90
21271;DHT22;10795;50.796;3.860;2024-01-30T04:04:26;10.50;99.90
21271;DHT22;10795;50.796;3.860;2024-01-30T04:06:52;10.60;99.90
21271;DHT22;10795;50.796;3.860;2024-01-30T04:09:18;10.50;99.90
21271;DHT22;10795;50.796;3.860;2024-01-30T04:11:48;10.50;99.90
21271;DHT22;10795;50.796;3.860;2024-01-30T04:14:14;10.50;99.90
21271;DHT22;10795;50.796;3.860;2024-01-30T04:16:42;10.50;99.90
21271;DHT22;10795;50.796;3.860;2024-01-30T04:19:10;10.50;99.90
21271;DHT22;10795;50.796;3.860;2024-01-30T04:21:35;10.50;99.90
21271;DHT22;10795;50.796;3.860;2024-01-30T04:24:01;10.40;99.90
21271;DHT22;10795;50.796;3.860;2024-01-30T04:26:32;10.50;99.90
21271;DHT22;10795;50.796;3.860;2024-01-30T04:29:02;10.60;99.90
21271;DHT22;10795;50.796;3.860;2024-01-30T04:31:28;10.50;99.90
21271;DHT22;10795;50.796;3.860;2024-01-30T04:33:54;10.50;99.90
21271;DHT22;10795;50.796;3.860;2024-01-30T04:36:19;10.50;99.90
21271;DHT22;10795;50.796;3.860;2024-01-30T04:38:45;10.50;99.90
21271;DHT22;10795;50.796;3.860;2024-01-30T04:41:11;10.60;99.90
21271;DHT22;10795;50.796;3.860;2024-01-30T04:43:39;10.60;99.90
21271;DHT22;10795;50.796;3.860;2024-01-30T04:46:09;10.60;99.90
21271;DHT22;10795;50.796;3.860;2024-01-30T04:48:35;10.50;99.90
21271;DHT22;10795;50.796;3.860;2024-01-30T04:51:03;10.80;99.90
21271;DHT22;10795;50.796;3.860;2024-01-30T04:53:32;10.90;99.90
21271;DHT22;10795;50.796;3.860;2024-01-30T04:55:58;10.80;99.90
21271;DHT22;10795;50.796;3.860;2024-01-30T04:58:24;10.60;99.90
21271;DHT22;10795;50.796;3.860;2024-01-30T05:00:54;10.70;99.90
21271;DHT22;10795;50.796;3.860;2024-01-30T05:03:22;10.60;99.90
21271;DHT22;10795;50.796;3.860;2024-01-30T05:05:53;10.50;99.90
21271;DHT22;10795;50.796;3.860;2024-01-30T05:08:19;10.50;99.90
21271;DHT22;10795;50.796;3.860;2024-01-30T05:10:47;10.60;99.90
21271;DHT22;10795;50.796;3.860;2024-01-30T05:13:13;10.50;99.90
21271;DHT22;10795;50.796;3.860;2024-01-30T05:15:41;10.30;99.90
21271;DHT22;10795;50.796;3.860;2024-01-30T05:18:07;10.20;99.90
21271;DHT22;10795;50.796;3.860;2024-01-30T05:20:33;10.10;99.90
21271;DHT22;10795;50.796;3.860;2024-01-30T05:23:01;10.00;99.90
21271;DHT22;10795;50.796;3.860;2024-01-30T05:25:29;10.00;99.90
21271;DHT22;10795;50.796;3.860;2024-01-30T05:27:57;10.30;99.90
21271;DHT22;10795;50.796;3.860;2024-01-30T05:30:25;10.30;99.90
21271;DHT22;10795;50.796;3.860;2024-01-30T05:32:53;10.50;99.90
21271;DHT22;10795;50.796;3.860;2024-01-30T05:35:21;10.50;99.90
21271;DHT22;10795;50.796;3.860;2024-01-30T05:37:49;10.30;99.90
21271;DHT22;10795;50.796;3.860;2024-01-30T05:40:16;10.20;99.90
21271;DHT22;10795;50.796;3.860;2024-01-30T05:42:42;10.30;99.90
21271;DHT22;10795;50.796;3.860;2024-01-30T05:45:08;10.20;99.90
21271;DHT22;10795;50.796;3.860;2024-01-30T05:47:37;10.30;99.90
21271;DHT22;10795;50.796;3.860;2024-01-30T05:50:03;10.30;99.90
21271;DHT22;10795;50.796;3.860;2024-01-30T05:52:33;10.30;99.90
21271;DHT22;10795;50.796;3.860;2024-01-30T05:55:01;10.30;99.90
21271;DHT22;10795;50.796;3.860;2024-01-30T05:57:31;10.10;99.90
21271;DHT22;10795;50.796;3.860;2024-01-30T05:59:56;10.10;99.90
21271;DHT22;10795;50.796;3.860;2024-01-30T06:02:25;10.10;99.90
21271;DHT22;10795;50.796;3.860;2024-01-30T06:04:51;10.10;99.90
21271;DHT22;10795;50.796;3.860;2024-01-30T06:07:18;10.10;99.90
21271;DHT22;10795;50.796;3.860;2024-01-30T06:09:44;10.20;99.90
21271;DHT22;10795;50.796;3.860;2024-01-30T06:12:11;10.20;99.90
21271;DHT22;10795;50.796;3.860;2024-01-30T06:14:37;10.20;99.90
21271;DHT22;10795;50.796;3.860;2024-01-30T06:17:04;10.10;99.90
21271;DHT22;10795;50.796;3.860;2024-01-30T06:19:30;10.10;99.90
21271;DHT22;10795;50.796;3.860;2024-01-30T06:21:59;10.20;99.90
21271;DHT22;10795;50.796;3.860;2024-01-30T06:24:27;10.20;99.90
21271;DHT22;10795;50.796;3.860;2024-01-30T06:26:53;10.20;99.90
21271;DHT22;10795;50.796;3.860;2024-01-30T06:29:21;10.10;99.90
21271;DHT22;10795;50.796;3.860;2024-01-30T06:31:47;9.90;99.90
21271;DHT22;10795;50.796;3.860;2024-01-30T06:34:13;9.90;99.90
21271;DHT22;10795;50.796;3.860;2024-01-30T06:36:39;10.00;99.90
21271;DHT22;10795;50.796;3.860;2024-01-30T06:39:05;9.90;99.90
21271;DHT22;10795;50.796;3.860;2024-01-30T06:41:31;9.80;99.90
21271;DHT22;10795;50.796;3.860;2024-01-30T06:43:59;9.90;99.90
21271;DHT22;10795;50.796;3.860;2024-01-30T06:46:25;9.90;99.90
21271;DHT22;10795;50.796;3.860;2024-01-30T06:48:51;10.00;99.90
21271;DHT22;10795;50.796;3.860;2024-01-30T06:51:16;10.00;99.90
21271;DHT22;10795;50.796;3.860;2024-01-30T06:53:45;10.00;99.90
21271;DHT22;10795;50.796;3.860;2024-01-30T06:56:10;10.10;99.90
21271;DHT22;10795;50.796;3.860;2024-01-30T06:58:39;10.20;99.90
21271;DHT22;10795;50.796;3.860;2024-01-30T07:01:07;10.20;99.90
21271;DHT22;10795;50.796;3.860;2024-01-30T07:03:32;10.20;99.90
21271;DHT22;10795;50.796;3.860;2024-01-30T07:05:58;10.20;99.90
21271;DHT22;10795;50.796;3.860;2024-01-30T07:08:24;10.30;99.90
21271;DHT22;10795;50.796;3.860;2024-01-30T07:10:50;10.30;99.90
21271;DHT22;10795;50.796;3.860;2024-01-30T07:13:16;10.30;99.90
21271;DHT22;10795;50.796;3.860;2024-01-30T07:15:49;10.30;99.90
21271;DHT22;10795;50.796;3.860;2024-01-30T07:18:17;10.20;99.90
21271;DHT22;10795;50.796;3.860;2024-01-30T07:20:43;10.20;99.90
21271;DHT22;10795;50.796;3.860;2024-01-30T07:23:19;10.20;99.90
21271;DHT22;10795;50.796;3.860;2024-01-30T07:25:45;10.20;99.90
21271;DHT22;10795;50.796;3.860;2024-01-30T07:28:14;10.40;99.90
21271;DHT22;10795;50.796;3.860;2024-01-30T07:30:43;10.40;99.90
21271;DHT22;10795;50.796;3.860;2024-01-30T07:33:08;10.50;99.90
21271;DHT22;10795;50.796;3.860;2024-01-30T07:35:36;10.40;99.90
21271;DHT22;10795;50.796;3.860;2024-01-30T07:38:02;10.50;99.90
21271;DHT22;10795;50.796;3.860;2024-01-30T07:40:30;10.50;99.90
21271;DHT22;10795;50.796;3.860;2024-01-30T07:42:56;10.50;99.90
21271;DHT22;10795;50.796;3.860;2024-01-30T07:45:24;10.40;99.90
21271;DHT22;10795;50.796;3.860;2024-01-30T07:47:52;10.40;99.90
21271;DHT22;10795;50.796;3.860;2024-01-30T07:50:18;10.40;99.90
21271;DHT22;10795;50.796;3.860;2024-01-30T07:52:44;10.30;99.90
21271;DHT22;10795;50.796;3.860;2024-01-30T07:55:10;10.30;99.90
21271;DHT22;10795;50.796;3.860;2024-01-30T07:57:38;10.40;99.90
21271;DHT22;10795;50.796;3.860;2024-01-30T08:00:06;10.50;99.90
21271;DHT22;10795;50.796;3.860;2024-01-30T08:02:35;10.40;99.90
21271;DHT22;10795;50.796;3.860;2024-01-30T08:05:03;10.40;99.90
21271;DHT22;10795;50.796;3.860;2024-01-30T08:07:29;10.40;99.90
21271;DHT22;10795;50.796;3.860;2024-01-30T08:09:56;10.40;99.90
21271;DHT22;10795;50.796;3.860;2024-01-30T08:12:24;10.40;99.90
21271;DHT22;10795;50.796;3.860;2024-01-30T08:14:50;10.30;99.90
21271;DHT22;10795;50.796;3.860;2024-01-30T08:17:15;10.30;99.90
21271;DHT22;10795;50.796;3.860;2024-01-30T08:19:44;10.40;99.90
21271;DHT22;10795;50.796;3.860;2024-01-30T08:22:10;10.40;99.90
21271;DHT22;10795;50.796;3.860;2024-01-30T08:24:38;10.30;99.90
21271;DHT22;10795;50.796;3.860;2024-01-30T08:27:06;10.30;99.90
21271;DHT22;10795;50.796;3.860;2024-01-30T08:29:32;10.40;99.90
21271;DHT22;10795;50.796;3.860;2024-01-30T08:32:00;10.30;99.90
21271;DHT22;10795;50.796;3.860;2024-01-30T08:34:26;10.30;99.90
21271;DHT22;10795;50.796;3.860;2024-01-30T08:36:52;10.40;99.90
21271;DHT22;10795;50.796;3.860;2024-01-30T08:39:20;10.40;99.90
21271;DHT22;10795;50.796;3.860;2024-01-30T08:41:46;10.50;99.90
21271;DHT22;10795;50.796;3.860;2024-01-30T08:44:15;10.40;99.90
21271;DHT22;10795;50.796;3.860;2024-01-30T08:46:41;10.40;99.90
21271;DHT22;10795;50.796;3.860;2024-01-30T08:49:07;10.40;99.90
21271;DHT22;10795;50.796;3.860;2024-01-30T08:51:33;10.40;99.90
21271;DHT22;10795;50.796;3.860;2024-01-30T08:53:59;10.50;99.90
21271;DHT22;10795;50.796;3.860;2024-01-30T08:56:27;10.50;99.90
21271;DHT22;10795;50.796;3.860;2024-01-30T08:58:55;10.40;99.90
21271;DHT22;10795;50.796;3.860;2024-01-30T09:01:28;10.50;99.90
21271;DHT22;10795;50.796;3.860;2024-01-30T09:03:54;10.40;99.90
21271;DHT22;10795;50.796;3.860;2024-01-30T09:06:20;10.50;99.90
21271;DHT22;10795;50.796;3.860;2024-01-30T09:08:47;10.50;99.90
21271;DHT22;10795;50.796;3.860;2024-01-30T09:11:14;10.50;99.90
21271;DHT22;10795;50.796;3.860;2024-01-30T09:13:40;10.60;99.90
21271;DHT22;10795;50.796;3.860;2024-01-30T09:16:07;10.50;99.90
21271;DHT22;10795;50.796;3.860;2024-01-30T09:18:33;10.60;99.90
21271;DHT22;10795;50.796;3.860;2024-01-30T09:20:59;10.60;99.90
21271;DHT22;10795;50.796;3.860;2024-01-30T09:23:26;10.70;99.90
21271;DHT22;10795;50.796;3.860;2024-01-30T09:25:55;10.70;99.90
21271;DHT22;10795;50.796;3.860;2024-01-30T09:28:21;10.80;99.90
21271;DHT22;10795;50.796;3.860;2024-01-30T09:30:49;10.80;99.90
21271;DHT22;10795;50.796;3.860;2024-01-30T09:33:15;10.80;99.90
21271;DHT22;10795;50.796;3.860;2024-01-30T09:35:43;10.80;99.90
21271;DHT22;10795;50.796;3.860;2024-01-30T09:38:08;10.90;99.90
21271;DHT22;10795;50.796;3.860;2024-01-30T09:40:34;10.80;99.90
21271;DHT22;10795;50.796;3.860;2024-01-30T09:43:00;10.80;99.90
21271;DHT22;10795;50.796;3.860;2024-01-30T09:45:26;10.90;99.90
21271;DHT22;10795;50.796;3.860;2024-01-30T09:47:53;10.90;99.90
21271;DHT22;10795;50.796;3.860;2024-01-30T09:50:19;10.80;99.90
21271;DHT22;10795;50.796;3.860;2024-01-30T09:52:46;10.80;99.90
21271;DHT22;10795;50.796;3.860;2024-01-30T09:55:12;10.80;99.90
21271;DHT22;10795;50.796;3.860;2024-01-30T09:57:38;10.80;99.90
21271;DHT22;10795;50.796;3.860;2024-01-30T10:00:05;10.80;99.90
21271;DHT22;10795;50.796;3.860;2024-01-30T10:02:41;10.90;99.90
21271;DHT22;10795;50.796;3.860;2024-01-30T10:05:08;10.90;99.90
21271;DHT22;10795;50.796;3.860;2024-01-30T10:07:34;10.80;99.90
21271;DHT22;10795;50.796;3.860;2024-01-30T10:10:02;10.80;99.90
21271;DHT22;10795;50.796;3.860;2024-01-30T10:12:29;10.90;99.90
21271;DHT22;10795;50.796;3.860;2024-01-30T10:14:56;10.80;99.90
21271;DHT22;10795;50.796;3.860;2024-01-30T10:17:27;10.80;99.90
21271;DHT22;10795;50.796;3.860;2024-01-30T10:19:53;10.80;99.90
21271;DHT22;10795;50.796;3.860;2024-01-30T10:22:18;10.80;99.90
21271;DHT22;10795;50.796;3.860;2024-01-30T10:24:45;10.70;99.90
21271;DHT22;10795;50.796;3.860;2024-01-30T10:27:13;10.70;99.90
21271;DHT22;10795;50.796;3.860;2024-01-30T10:29:48;10.70;99.90
21271;DHT22;10795;50.796;3.860;2024-01-30T10:32:15;10.60;99.90
21271;DHT22;10795;50.796;3.860;2024-01-30T10:34:43;10.60;99.90
21271;DHT22;10795;50.796;3.860;2024-01-30T10:37:10;10.70;99.90
21271;DHT22;10795;50.796;3.860;2024-01-30T10:39:39;10.80;99.90
21271;DHT22;10795;50.796;3.860;2024-01-30T10:42:12;10.60;99.90
21271;DHT22;10795;50.796;3.860;2024-01-30T10:47:28;10.90;99.90
21271;DHT22;10795;50.796;3.860;2024-01-30T10:50:00;10.90;99.90
21271;DHT22;10795;50.796;3.860;2024-01-30T10:52:29;11.30;99.90
21271;DHT22;10795;50.796;3.860;2024-01-30T10:54:58;11.70;99.90
21271;DHT22;10795;50.796;3.860;2024-01-30T10:57:25;11.70;99.90
21271;DHT22;10795;50.796;3.860;2024-01-30T10:59:59;11.60;99.90
21271;DHT22;10795;50.796;3.860;2024-01-30T11:02:30;11.40;99.90
21271;DHT22;10795;50.796;3.860;2024-01-30T11:04:59;11.20;99.90
21271;DHT22;10795;50.796;3.860;2024-01-30T11:07:27;11.30;99.90
21271;DHT22;10795;50.796;3.860;2024-01-30T11:09:59;11.40;99.90
21271;DHT22;10795;50.796;3.860;2024-01-30T11:12:41;11.20;99.90
21271;DHT22;10795;50.796;3.860;2024-01-30T11:15:16;11.00;99.90
21271;DHT22;10795;50.796;3.860;2024-01-30T11:20:27;10.90;99.90
21271;DHT22;10795;50.796;3.860;2024-01-30T11:22:56;10.90;99.90
21271;DHT22;10795;50.796;3.860;2024-01-30T11:25:23;11.00;99.90
21271;DHT22;10795;50.796;3.860;2024-01-30T11:27:51;11.20;99.90
21271;DHT22;10795;50.796;3.860;2024-01-30T11:30:30;11.30;99.90
21271;DHT22;10795;50.796;3.860;2024-01-30T11:33:04;11.40;99.90
21271;DHT22;10795;50.796;3.860;2024-01-30T11:35:41;11.50;99.90
21271;DHT22;10795;50.796;3.860;2024-01-30T11:38:11;11.30;99.90
21271;DHT22;10795;50.796;3.860;2024-01-30T11:40:39;11.10;99.90
21271;DHT22;10795;50.796;3.860;2024-01-30T11:43:08;10.90;99.90
21271;DHT22;10795;50.796;3.860;2024-01-30T11:45:37;10.80;99.90
21271;DHT22;10795;50.796;3.860;2024-01-30T11:48:05;10.70;99.90
21271;DHT22;10795;50.796;3.860;2024-01-30T11:50:35;10.60;99.90
21271;DHT22;10795;50.796;3.860;2024-01-30T11:53:01;10.50;99.90
21271;DHT22;10795;50.796;3.860;2024-01-30T11:55:30;10.70;99.90
21271;DHT22;10795;50.796;3.860;2024-01-30T11:57:59;11.00;99.90
21271;DHT22;10795;50.796;3.860;2024-01-30T12:00:25;11.30;99.90
21271;DHT22;10795;50.796;3.860;2024-01-30T12:02:53;11.80;99.90
21271;DHT22;10795;50.796;3.860;2024-01-30T12:05:27;12.00;99.90
21271;DHT22;10795;50.796;3.860;2024-01-30T12:07:53;11.70;99.90
21271;DHT22;10795;50.796;3.860;2024-01-30T12:10:24;11.40;99.90
21271;DHT22;10795;50.796;3.860;2024-01-30T12:12:53;11.10;99.90
21271;DHT22;10795;50.796;3.860;2024-01-30T12:15:21;11.10;99.90
21271;DHT22;10795;50.796;3.860;2024-01-30T12:17:47;11.50;99.90
21271;DHT22;10795;50.796;3.860;2024-01-30T12:20:14;11.90;99.90
21271;DHT22;10795;50.796;3.860;2024-01-30T12:22:47;12.00;99.90
21271;DHT22;10795;50.796;3.860;2024-01-30T12:25:15;12.10;99.90
21271;DHT22;10795;50.796;3.860;2024-01-30T12:27:47;12.00;99.90
21271;DHT22;10795;50.796;3.860;2024-01-30T12:30:16;12.00;99.90
21271;DHT22;10795;50.796;3.860;2024-01-30T12:32:44;12.30;99.90
21271;DHT22;10795;50.796;3.860;2024-01-30T12:35:17;12.30;90.50
21271;DHT22;10795;50.796;3.860;2024-01-30T12:37:49;12.20;97.30
21271;DHT22;10795;50.796;3.860;2024-01-30T12:40:15;11.80;99.90
21271;DHT22;10795;50.796;3.860;2024-01-30T12:42:47;12.30;99.90
21271;DHT22;10795;50.796;3.860;2024-01-30T12:45:15;12.30;99.80
21271;DHT22;10795;50.796;3.860;2024-01-30T12:47:42;12.40;99.90
21271;DHT22;10795;50.796;3.860;2024-01-30T12:50:10;12.10;99.90
21271;DHT22;10795;50.796;3.860;2024-01-30T12:52:37;11.80;99.90
21271;DHT22;10795;50.796;3.860;2024-01-30T12:55:05;11.70;99.90
21271;DHT22;10795;50.796;3.860;2024-01-30T12:57:36;11.60;99.90
21271;DHT22;10795;50.796;3.860;2024-01-30T13:00:02;11.50;99.90
21271;DHT22;10795;50.796;3.860;2024-01-30T13:02:28;11.60;99.90
21271;DHT22;10795;50.796;3.860;2024-01-30T13:05:00;11.60;99.90
21271;DHT22;10795;50.796;3.860;2024-01-30T13:07:28;11.50;99.90
21271;DHT22;10795;50.796;3.860;2024-01-30T13:09:57;11.50;99.90
21271;DHT22;10795;50.796;3.860;2024-01-30T13:12:31;11.40;99.90
21271;DHT22;10795;50.796;3.860;2024-01-30T13:15:00;11.40;99.90
21271;DHT22;10795;50.796;3.860;2024-01-30T13:17:27;11.70;99.90
21271;DHT22;10795;50.796;3.860;2024-01-30T13:19:53;11.40;99.90
21271;DHT22;10795;50.796;3.860;2024-01-30T13:22:20;11.00;99.90
21271;DHT22;10795;50.796;3.860;2024-01-30T13:24:51;11.10;99.90
21271;DHT22;10795;50.796;3.860;2024-01-30T13:27:17;11.00;99.90
21271;DHT22;10795;50.796;3.860;2024-01-30T13:29:43;11.30;99.90
21271;DHT22;10795;50.796;3.860;2024-01-30T13:32:09;11.60;99.90
21271;DHT22;10795;50.796;3.860;2024-01-30T13:34:37;11.10;99.90
21271;DHT22;10795;50.796;3.860;2024-01-30T13:37:05;10.90;99.90
21271;DHT22;10795;50.796;3.860;2024-01-30T13:39:31;10.70;99.90
21271;DHT22;10795;50.796;3.860;2024-01-30T13:41:56;10.80;99.90
21271;DHT22;10795;50.796;3.860;2024-01-30T13:44:27;11.20;99.90
21271;DHT22;10795;50.796;3.860;2024-01-30T13:46:53;11.50;99.90
21271;DHT22;10795;50.796;3.860;2024-01-30T13:49:24;11.10;99.90
21271;DHT22;10795;50.796;3.860;2024-01-30T13:51:55;10.90;99.90
21271;DHT22;10795;50.796;3.860;2024-01-30T13:54:21;10.90;99.90
21271;DHT22;10795;50.796;3.860;2024-01-30T13:56:49;10.90;99.90
21271;DHT22;10795;50.796;3.860;2024-01-30T13:59:14;10.80;99.90
21271;DHT22;10795;50.796;3.860;2024-01-30T14:01:40;11.00;99.90
21271;DHT22;10795;50.796;3.860;2024-01-30T14:04:06;10.90;99.90
21271;DHT22;10795;50.796;3.860;2024-01-30T14:06:32;10.80;99.90
21271;DHT22;10795;50.796;3.860;2024-01-30T14:09:00;10.60;99.90
21271;DHT22;10795;50.796;3.860;2024-01-30T14:11:26;10.70;99.90
21271;DHT22;10795;50.796;3.860;2024-01-30T14:13:54;10.70;99.90
21271;DHT22;10795;50.796;3.860;2024-01-30T14:16:24;10.70;99.90
21271;DHT22;10795;50.796;3.860;2024-01-30T14:18:58;10.80;99.90
21271;DHT22;10795;50.796;3.860;2024-01-30T14:21:24;10.80;99.90
21271;DHT22;10795;50.796;3.860;2024-01-30T14:23:50;10.60;99.90
21271;DHT22;10795;50.796;3.860;2024-01-30T14:26:18;10.70;99.90
21271;DHT22;10795;50.796;3.860;2024-01-30T14:28:48;10.80;99.90
21271;DHT22;10795;50.796;3.860;2024-01-30T14:31:14;10.80;99.90
21271;DHT22;10795;50.796;3.860;2024-01-30T14:33:40;10.50;99.90
21271;DHT22;10795;50.796;3.860;2024-01-30T14:36:06;10.50;99.90
21271;DHT22;10795;50.796;3.860;2024-01-30T14:38:36;10.70;99.90
21271;DHT22;10795;50.796;3.860;2024-01-30T14:41:04;10.60;99.90
21271;DHT22;10795;50.796;3.860;2024-01-30T14:43:31;10.60;99.90
21271;DHT22;10795;50.796;3.860;2024-01-30T14:46:00;10.90;99.90
21271;DHT22;10795;50.796;3.860;2024-01-30T14:48:25;10.60;99.90
21271;DHT22;10795;50.796;3.860;2024-01-30T14:50:51;10.40;99.90
21271;DHT22;10795;50.796;3.860;2024-01-30T14:53:17;10.60;99.90
21271;DHT22;10795;50.796;3.860;2024-01-30T14:55:43;10.80;99.90
21271;DHT22;10795;50.796;3.860;2024-01-30T14:58:11;10.90;99.90
21271;DHT22;10795;50.796;3.860;2024-01-30T15:00:37;10.90;99.90
21271;DHT22;10795;50.796;3.860;2024-01-30T15:03:06;10.80;99.90
21271;DHT22;10795;50.796;3.860;2024-01-30T15:05:32;10.70;99.90
21271;DHT22;10795;50.796;3.860;2024-01-30T15:08:00;10.70;99.90
21271;DHT22;10795;50.796;3.860;2024-01-30T15:10:26;11.00;99.90
21271;DHT22;10795;50.796;3.860;2024-01-30T15:12:52;10.70;99.90
21271;DHT22;10795;50.796;3.860;2024-01-30T15:15:20;10.50;99.90
21271;DHT22;10795;50.796;3.860;2024-01-30T15:17:46;10.40;99.90
21271;DHT22;10795;50.796;3.860;2024-01-30T15:20:16;10.30;99.90
21271;DHT22;10795;50.796;3.860;2024-01-30T15:22:46;10.20;99.90
21271;DHT22;10795;50.796;3.860;2024-01-30T15:25:12;10.00;99.90
21271;DHT22;10795;50.796;3.860;2024-01-30T15:27:40;10.00;99.90
21271;DHT22;10795;50.796;3.860;2024-01-30T15:30:11;9.90;99.90
21271;DHT22;10795;50.796;3.860;2024-01-30T15:32:37;10.00;99.90
21271;DHT22;10795;50.796;3.860;2024-01-30T15:35:03;9.90;99.90
21271;DHT22;10795;50.796;3.860;2024-01-30T15:37:32;9.90;99.90
21271;DHT22;10795;50.796;3.860;2024-01-30T15:39:57;9.90;99.90